createdAt,value
2023-04-20T00:00:01.572Z,5.6
2023-04-20T00:01:02.750Z,5.6
2023-04-20T00:02:03.989Z,5.6
2023-04-20T00:03:05.722Z,5.6
2023-04-20T00:04:07.279Z,5.5
2023-04-20T00:05:08.573Z,5.6
2023-04-20T00:06:09.955Z,5.5
2023-04-20T00:07:11.132Z,5.6
2023-04-20T00:08:12.290Z,5.6
2023-04-20T00:09:13.490Z,5.6
2023-04-20T00:10:14.423Z,5.5
2023-04-20T00:11:15.590Z,5.5
2023-04-20T00:12:16.571Z,5.6
2023-04-20T00:13:17.727Z,5.5
2023-04-20T00:14:18.912Z,5.5
2023-04-20T00:15:20.056Z,5.5
2023-04-20T00:16:21.252Z,5.5
2023-04-20T00:17:22.494Z,5.5
2023-04-20T00:18:23.661Z,5.5
2023-04-20T00:19:24.828Z,5.5
2023-04-20T00:20:25.991Z,5.5
2023-04-20T00:21:27.159Z,5.5
2023-04-20T00:22:28.335Z,5.5
2023-04-20T00:23:29.493Z,5.5
2023-04-20T00:24:30.652Z,5.5
2023-04-20T00:25:31.823Z,5.5
2023-04-20T00:26:32.994Z,5.5
2023-04-20T00:27:34.173Z,5.5
2023-04-20T00:28:35.318Z,5.5
2023-04-20T00:29:36.775Z,5.5
2023-04-20T00:30:37.917Z,5.5
2023-04-20T00:31:39.216Z,5.5
2023-04-20T00:32:40.294Z,5.5
2023-04-20T00:33:41.342Z,5.4
2023-04-20T00:34:42.509Z,5.4
2023-04-20T00:35:43.674Z,5.5
2023-04-20T00:36:44.953Z,5.5
2023-04-20T00:37:46.153Z,5.4
2023-04-20T00:38:47.120Z,5.4
2023-04-20T00:39:48.280Z,5.4
2023-04-20T00:40:49.454Z,5.4
2023-04-20T00:41:50.630Z,5.4
2023-04-20T00:42:51.805Z,5.4
2023-04-20T00:43:52.951Z,5.4
2023-04-20T00:44:54.177Z,5.4
2023-04-20T00:45:55.342Z,5.4
2023-04-20T00:46:56.502Z,5.4
2023-04-20T00:47:57.763Z,5.4
2023-04-20T00:48:58.997Z,5.4
2023-04-20T00:50:00.165Z,5.4
2023-04-20T00:51:01.330Z,5.4
2023-04-20T00:52:02.495Z,5.4
2023-04-20T00:53:03.674Z,5.4
2023-04-20T00:54:04.629Z,5.4
2023-04-20T00:55:05.797Z,5.4
2023-04-20T00:56:06.962Z,5.4
2023-04-20T00:57:07.936Z,5.4
2023-04-20T00:58:08.913Z,5.4
2023-04-20T00:59:10.070Z,5.4
2023-04-20T01:00:11.396Z,5.4
2023-04-20T01:01:12.549Z,5.4
2023-04-20T01:02:13.751Z,5.4
2023-04-20T01:03:15.111Z,5.4
2023-04-20T01:04:16.954Z,5.4
2023-04-20T01:05:18.669Z,5.4
2023-04-20T01:06:19.832Z,5.5
2023-04-20T01:07:21.005Z,5.5
2023-04-20T01:08:21.966Z,5.5
2023-04-20T01:09:23.134Z,5.5
2023-04-20T01:10:24.296Z,5.5
2023-04-20T01:11:25.466Z,5.5
2023-04-20T01:12:26.639Z,5.5
2023-04-20T01:13:27.796Z,5.5
2023-04-20T01:14:28.963Z,5.5
2023-04-20T01:15:30.169Z,5.5
2023-04-20T01:16:31.365Z,5.5
2023-04-20T01:17:32.855Z,5.5
2023-04-20T01:18:33.799Z,5.5
2023-04-20T01:19:34.968Z,5.5
2023-04-20T01:20:36.134Z,5.5
2023-04-20T01:21:37.301Z,5.5
2023-04-20T01:22:38.477Z,5.6
2023-04-20T01:23:39.438Z,5.6
2023-04-20T01:24:40.603Z,5.6
2023-04-20T01:25:41.576Z,5.6
2023-04-20T01:26:42.740Z,5.6
2023-04-20T01:27:43.919Z,5.6
2023-04-20T01:28:44.932Z,5.6
2023-04-20T01:29:46.097Z,5.6
2023-04-20T01:30:47.292Z,5.6
2023-04-20T01:31:48.525Z,5.6
2023-04-20T01:32:50.031Z,5.5
2023-04-20T01:33:51.119Z,5.6
2023-04-20T01:34:52.293Z,5.5
2023-04-20T01:35:53.452Z,5.5
2023-04-20T01:36:54.461Z,5.5
2023-04-20T01:37:55.638Z,5.5
2023-04-20T01:38:56.800Z,5.5
2023-04-20T01:39:58.029Z,5.5
2023-04-20T01:40:59.252Z,5.5
2023-04-20T01:42:00.437Z,5.5
2023-04-20T01:43:01.600Z,5.5
2023-04-20T01:44:02.755Z,5.5
2023-04-20T01:45:03.731Z,5.5
2023-04-20T01:46:05.061Z,5.5
2023-04-20T01:47:06.179Z,5.5
2023-04-20T01:48:07.404Z,5.5
2023-04-20T01:49:08.949Z,5.5
2023-04-20T01:50:10.112Z,5.5
2023-04-20T01:51:11.276Z,5.5
2023-04-20T01:52:12.473Z,5.6
2023-04-20T01:53:13.657Z,5.6
2023-04-20T01:54:14.849Z,5.6
2023-04-20T01:55:15.991Z,5.6
2023-04-20T01:56:20.671Z,5.6
2023-04-20T01:57:21.857Z,5.6
2023-04-20T01:58:23.008Z,5.6
2023-04-20T01:59:23.973Z,5.6
2023-04-20T02:00:25.136Z,5.6
2023-04-20T02:01:26.149Z,5.6
2023-04-20T02:02:27.910Z,5.6
2023-04-20T02:03:29.842Z,5.6
2023-04-20T02:04:31.585Z,5.6
2023-04-20T02:05:32.746Z,5.6
2023-04-20T02:06:33.912Z,5.6
2023-04-20T02:07:34.898Z,5.6
2023-04-20T02:08:36.049Z,5.6
2023-04-20T02:09:37.215Z,5.6
2023-04-20T02:10:38.386Z,5.6
2023-04-20T02:11:39.554Z,5.6
2023-04-20T02:12:40.728Z,5.6
2023-04-20T02:13:41.881Z,5.6
2023-04-20T02:14:43.045Z,5.6
2023-04-20T02:15:44.219Z,5.6
2023-04-20T02:16:45.614Z,5.6
2023-04-20T02:17:47.069Z,5.6
2023-04-20T02:18:48.217Z,5.6
2023-04-20T02:19:49.387Z,5.6
2023-04-20T02:20:50.551Z,5.6
2023-04-20T02:21:51.721Z,5.6
2023-04-20T02:22:52.911Z,5.6
2023-04-20T02:23:54.053Z,5.6
2023-04-20T02:24:55.217Z,5.6
2023-04-20T02:25:56.380Z,5.6
2023-04-20T02:26:57.546Z,5.6
2023-04-20T02:27:58.712Z,5.6
2023-04-20T02:28:59.884Z,5.6
2023-04-20T02:30:01.062Z,5.6
2023-04-20T02:31:02.223Z,5.6
2023-04-20T02:32:03.414Z,5.6
2023-04-20T02:33:04.591Z,5.6
2023-04-20T02:34:05.963Z,5.6
2023-04-20T02:35:07.195Z,5.6
2023-04-20T02:36:08.348Z,5.6
2023-04-20T02:37:09.519Z,5.6
2023-04-20T02:38:10.686Z,5.6
2023-04-20T02:39:11.852Z,5.6
2023-04-20T02:40:13.015Z,5.6
2023-04-20T02:41:14.174Z,5.6
2023-04-20T02:42:15.344Z,5.6
2023-04-20T02:43:16.506Z,5.6
2023-04-20T02:44:17.673Z,5.6
2023-04-20T02:45:18.857Z,5.6
2023-04-20T02:46:20.035Z,5.6
2023-04-20T02:47:21.483Z,5.6
2023-04-20T02:48:22.888Z,5.6
2023-04-20T02:49:24.043Z,5.6
2023-04-20T02:50:25.212Z,5.6
2023-04-20T02:51:26.372Z,5.6
2023-04-20T02:52:27.545Z,5.6
2023-04-20T02:53:28.738Z,5.6
2023-04-20T02:54:29.877Z,5.6
2023-04-20T02:55:31.043Z,5.5
2023-04-20T02:56:32.210Z,5.5
2023-04-20T02:57:33.375Z,5.5
2023-04-20T02:58:34.565Z,5.5
2023-04-20T02:59:35.718Z,5.5
2023-04-20T03:00:36.886Z,5.5
2023-04-20T03:01:38.108Z,5.5
2023-04-20T03:02:39.571Z,5.5
2023-04-20T03:03:41.253Z,5.5
2023-04-20T03:04:42.921Z,5.5
2023-04-20T03:05:44.611Z,5.5
2023-04-20T03:06:45.771Z,5.5
2023-04-20T03:07:46.945Z,5.5
2023-04-20T03:08:48.112Z,5.5
2023-04-20T03:09:49.272Z,5.5
2023-04-20T03:10:50.617Z,5.5
2023-04-20T03:11:51.750Z,5.5
2023-04-20T03:12:52.915Z,5.5
2023-04-20T03:13:54.083Z,5.5
2023-04-20T03:14:55.254Z,5.5
2023-04-20T03:15:56.424Z,5.5
2023-04-20T03:16:57.795Z,5.5
2023-04-20T03:17:59.117Z,5.5
2023-04-20T03:19:00.475Z,5.5
2023-04-20T03:20:01.641Z,5.5
2023-04-20T03:21:02.807Z,5.5
2023-04-20T03:22:03.964Z,5.5
2023-04-20T03:23:05.140Z,5.5
2023-04-20T03:24:06.313Z,5.5
2023-04-20T03:25:07.477Z,5.5
2023-04-20T03:26:08.638Z,5.5
2023-04-20T03:27:09.805Z,5.5
2023-04-20T03:28:10.963Z,5.5
2023-04-20T03:29:12.145Z,5.5
2023-04-20T03:30:13.303Z,5.5
2023-04-20T03:31:14.563Z,5.5
2023-04-20T03:32:15.750Z,5.5
2023-04-20T03:33:16.942Z,5.5
2023-04-20T03:34:18.088Z,5.5
2023-04-20T03:35:19.251Z,5.5
2023-04-20T03:36:20.408Z,5.5
2023-04-20T03:37:21.614Z,5.5
2023-04-20T03:38:22.744Z,5.5
2023-04-20T03:39:23.918Z,5.5
2023-04-20T03:40:25.077Z,5.5
2023-04-20T03:41:26.254Z,5.5
2023-04-20T03:42:27.415Z,5.5
2023-04-20T03:43:28.590Z,5.5
2023-04-20T03:44:29.770Z,5.5
2023-04-20T03:45:30.945Z,5.5
2023-04-20T03:46:32.095Z,5.5
2023-04-20T03:47:33.290Z,5.6
2023-04-20T03:48:34.801Z,5.6
2023-04-20T03:49:35.952Z,5.6
2023-04-20T03:50:37.112Z,5.6
2023-04-20T03:51:38.274Z,5.6
2023-04-20T03:52:39.438Z,5.6
2023-04-20T03:53:40.602Z,5.6
2023-04-20T03:54:41.781Z,5.6
2023-04-20T03:55:42.938Z,5.6
2023-04-20T03:56:44.102Z,5.6
2023-04-20T03:57:45.271Z,5.6
2023-04-20T03:58:46.522Z,5.6
2023-04-20T03:59:47.692Z,5.6
2023-04-20T04:00:48.856Z,5.6
2023-04-20T04:01:50.096Z,5.6
2023-04-20T04:02:50.965Z,5.6
2023-04-20T04:03:52.806Z,5.6
2023-04-20T04:04:54.793Z,5.6
2023-04-20T04:05:56.707Z,5.6
2023-04-20T04:06:57.870Z,5.6
2023-04-20T04:07:59.040Z,5.6
2023-04-20T04:09:00.217Z,5.6
2023-04-20T04:10:01.373Z,5.6
2023-04-20T04:11:02.546Z,5.6
2023-04-20T04:12:03.703Z,5.6
2023-04-20T04:13:04.873Z,5.6
2023-04-20T04:14:06.057Z,5.6
2023-04-20T04:15:07.197Z,5.6
2023-04-20T04:16:08.368Z,5.6
2023-04-20T04:17:09.716Z,5.6
2023-04-20T04:18:11.091Z,5.6
2023-04-20T04:19:12.308Z,5.6
2023-04-20T04:20:13.438Z,5.6
2023-04-20T04:21:15.858Z,5.6
2023-04-20T04:22:17.022Z,5.6
2023-04-20T04:23:18.196Z,5.6
2023-04-20T04:24:19.364Z,5.6
2023-04-20T04:25:20.521Z,5.6
2023-04-20T04:26:21.690Z,5.6
2023-04-20T04:27:22.864Z,5.6
2023-04-20T04:28:24.020Z,5.6
2023-04-20T04:29:25.191Z,5.6
2023-04-20T04:30:26.355Z,5.6
2023-04-20T04:31:27.560Z,5.6
2023-04-20T04:32:28.879Z,5.6
2023-04-20T04:33:30.054Z,5.7
2023-04-20T04:34:31.243Z,5.7
2023-04-20T04:35:32.387Z,5.7
2023-04-20T04:36:33.686Z,5.7
2023-04-20T04:37:34.848Z,5.7
2023-04-20T04:38:36.020Z,5.7
2023-04-20T04:39:37.346Z,5.7
2023-04-20T04:40:38.473Z,5.7
2023-04-20T04:41:39.668Z,5.7
2023-04-20T04:42:40.809Z,5.7
2023-04-20T04:43:41.975Z,5.7
2023-04-20T04:44:43.147Z,5.7
2023-04-20T04:45:44.308Z,5.7
2023-04-20T04:46:45.532Z,5.7
2023-04-20T04:47:47.068Z,5.7
2023-04-20T04:48:48.342Z,5.7
2023-04-20T04:49:49.533Z,5.7
2023-04-20T04:50:50.670Z,5.7
2023-04-20T04:51:51.827Z,5.7
2023-04-20T04:52:52.993Z,5.8
2023-04-20T04:53:54.160Z,5.7
2023-04-20T04:54:55.341Z,5.7
2023-04-20T04:55:56.491Z,5.7
2023-04-20T04:56:57.660Z,5.7
2023-04-20T04:57:58.823Z,5.7
2023-04-20T04:58:59.988Z,5.7
2023-04-20T05:00:01.182Z,5.7
2023-04-20T05:01:02.324Z,5.7
2023-04-20T05:03:12.626Z,5.7
2023-04-20T05:04:14.480Z,5.8
2023-04-20T05:05:16.098Z,5.8
2023-04-20T05:06:17.241Z,5.8
2023-04-20T05:07:18.206Z,5.8
2023-04-20T05:08:19.374Z,5.8
2023-04-20T05:09:20.732Z,5.8
2023-04-20T05:10:21.748Z,5.8
2023-04-20T05:11:22.905Z,5.8
2023-04-20T05:12:23.874Z,5.8
2023-04-20T05:13:25.040Z,5.8
2023-04-20T05:14:26.203Z,5.8
2023-04-20T05:15:27.385Z,5.8
2023-04-20T05:16:28.566Z,5.8
2023-04-20T05:17:29.914Z,5.8
2023-04-20T05:18:31.144Z,5.8
2023-04-20T05:19:32.300Z,5.9
2023-04-20T05:20:33.510Z,5.9
2023-04-20T05:21:34.487Z,5.9
2023-04-20T05:22:35.649Z,6
2023-04-20T05:23:36.822Z,6
2023-04-20T05:24:37.978Z,6
2023-04-20T05:25:39.175Z,6
2023-04-20T05:26:40.314Z,6
2023-04-20T05:27:41.483Z,6
2023-04-20T05:28:42.645Z,6
2023-04-20T05:29:43.812Z,6
2023-04-20T05:30:44.986Z,6
2023-04-20T05:31:46.159Z,6
2023-04-20T05:32:50.124Z,6
2023-04-20T05:33:53.439Z,6
2023-04-20T05:34:54.600Z,5.9
2023-04-20T05:35:55.881Z,5.9
2023-04-20T05:36:57.065Z,5.9
2023-04-20T05:37:58.235Z,5.9
2023-04-20T05:38:59.397Z,5.9
2023-04-20T05:40:00.565Z,6
2023-04-20T05:41:01.738Z,5.9
2023-04-20T05:42:02.919Z,5.9
2023-04-20T05:43:04.065Z,5.9
2023-04-20T05:44:05.084Z,5.9
2023-04-20T05:45:06.246Z,5.9
2023-04-20T05:46:07.462Z,5.9
2023-04-20T05:47:08.556Z,5.9
2023-04-20T05:48:09.725Z,5.9
2023-04-20T05:49:10.884Z,5.9
2023-04-20T05:50:11.865Z,5.9
2023-04-20T05:51:12.996Z,5.9
2023-04-20T05:52:14.121Z,5.9
2023-04-20T05:53:15.286Z,5.9
2023-04-20T05:54:16.450Z,5.9
2023-04-20T05:55:18.998Z,5.9
2023-04-20T05:56:23.703Z,5.9
2023-04-20T05:57:24.738Z,5.9
2023-04-20T05:58:25.900Z,5.9
2023-04-20T05:59:27.065Z,5.9
2023-04-20T06:00:28.264Z,5.9
2023-04-20T06:01:29.476Z,5.9
2023-04-20T06:02:30.704Z,5.9
2023-04-20T06:03:32.360Z,5.9
2023-04-20T06:04:34.210Z,5.9
2023-04-20T06:05:36.236Z,5.8
2023-04-20T06:06:37.984Z,5.9
2023-04-20T06:07:39.161Z,5.9
2023-04-20T06:08:40.334Z,5.9
2023-04-20T06:09:41.497Z,5.9
2023-04-20T06:10:42.671Z,5.9
2023-04-20T06:11:43.825Z,5.9
2023-04-20T06:12:45.003Z,5.9
2023-04-20T06:13:46.164Z,5.9
2023-04-20T06:14:47.194Z,5.9
2023-04-20T06:15:48.370Z,5.9
2023-04-20T06:16:49.547Z,5.9
2023-04-20T06:17:50.783Z,6
2023-04-20T06:18:51.980Z,6
2023-04-20T06:19:53.144Z,6.1
2023-04-20T06:20:54.133Z,6.2
2023-04-20T06:21:55.356Z,6.3
2023-04-20T06:22:56.420Z,6.4
2023-04-20T06:23:57.579Z,6.4
2023-04-20T06:24:58.751Z,6.5
2023-04-20T06:25:59.926Z,6.5
2023-04-20T06:27:01.081Z,6.6
2023-04-20T06:28:02.245Z,6.6
2023-04-20T06:29:03.413Z,6.7
2023-04-20T06:30:04.580Z,6.7
2023-04-20T06:31:05.751Z,6.8
2023-04-20T06:32:07.052Z,6.8
2023-04-20T06:33:09.746Z,6.9
2023-04-20T06:34:13.486Z,6.8
2023-04-20T06:35:14.659Z,6.8
2023-04-20T06:36:15.648Z,6.7
2023-04-20T06:37:16.818Z,6.7
2023-04-20T06:38:18.018Z,6.7
2023-04-20T06:39:19.384Z,6.6
2023-04-20T06:40:20.726Z,6.6
2023-04-20T06:41:21.914Z,6.6
2023-04-20T06:42:23.062Z,6.6
2023-04-20T06:43:24.225Z,6.5
2023-04-20T06:44:25.395Z,6.5
2023-04-20T06:45:26.558Z,6.5
2023-04-20T06:46:27.758Z,6.5
2023-04-20T06:47:28.975Z,6.6
2023-04-20T06:48:31.892Z,6.6
2023-04-20T06:49:34.173Z,6.6
2023-04-20T06:50:35.345Z,6.7
2023-04-20T06:51:36.402Z,6.9
2023-04-20T06:52:37.635Z,7.1
2023-04-20T06:53:38.869Z,7.2
2023-04-20T06:54:40.053Z,7.3
2023-04-20T06:55:41.111Z,7.5
2023-04-20T06:56:42.289Z,7.5
2023-04-20T06:57:43.257Z,7.6
2023-04-20T06:58:44.519Z,7.7
2023-04-20T06:59:45.683Z,7.7
2023-04-20T07:00:46.849Z,7.8
2023-04-20T07:01:48.034Z,7.8
2023-04-20T07:02:49.289Z,7.8
2023-04-20T07:03:51.343Z,7.8
2023-04-20T07:04:53.740Z,7.9
2023-04-20T07:05:55.305Z,8.1
2023-04-20T07:06:56.452Z,8.2
2023-04-20T07:07:57.765Z,8.3
2023-04-20T07:08:58.988Z,8.2
2023-04-20T07:10:00.199Z,8.3
2023-04-20T07:11:01.442Z,8.2
2023-04-20T07:12:02.631Z,8.3
2023-04-20T07:13:03.591Z,8.3
2023-04-20T07:14:04.611Z,8.4
2023-04-20T07:15:05.434Z,8.4
2023-04-20T07:16:06.356Z,8.4
2023-04-20T07:17:07.617Z,8.4
2023-04-20T07:18:08.816Z,8.4
2023-04-20T07:19:10.054Z,8.3
2023-04-20T07:20:11.260Z,8.3
2023-04-20T07:21:12.602Z,8.4
2023-04-20T07:22:13.738Z,8.3
2023-04-20T07:23:15.135Z,8.3
2023-04-20T07:24:16.400Z,8.2
2023-04-20T07:25:17.567Z,8.2
2023-04-20T07:26:18.744Z,8.2
2023-04-20T07:27:19.898Z,8.2
2023-04-20T07:28:21.062Z,8.2
2023-04-20T07:29:22.228Z,8.1
2023-04-20T07:30:23.393Z,8.1
2023-04-20T07:31:24.661Z,8.1
2023-04-20T07:32:26.028Z,8.1
2023-04-20T07:33:27.222Z,8.1
2023-04-20T07:34:28.517Z,8.1
2023-04-20T07:35:29.686Z,8.2
2023-04-20T07:36:30.847Z,8.4
2023-04-20T07:37:32.009Z,8.4
2023-04-20T07:38:33.070Z,8.4
2023-04-20T07:39:34.324Z,8.4
2023-04-20T07:40:35.496Z,8.3
2023-04-20T07:41:36.666Z,8.4
2023-04-20T07:42:37.835Z,8.4
2023-04-20T07:43:38.821Z,8.3
2023-04-20T07:44:39.976Z,8.3
2023-04-20T07:45:41.174Z,8.4
2023-04-20T07:46:42.719Z,8.4
2023-04-20T07:47:43.874Z,8.4
2023-04-20T07:48:44.898Z,8.5
2023-04-20T07:49:46.048Z,8.5
2023-04-20T07:50:47.207Z,8.5
2023-04-20T07:51:48.379Z,8.5
2023-04-20T07:52:49.438Z,8.5
2023-04-20T07:53:50.658Z,8.5
2023-04-20T07:54:51.613Z,8.6
2023-04-20T07:55:52.779Z,8.6
2023-04-20T07:56:53.946Z,8.6
2023-04-20T07:57:55.110Z,8.7
2023-04-20T07:58:56.304Z,8.7
2023-04-20T07:59:57.450Z,8.8
2023-04-20T08:00:58.610Z,8.8
2023-04-20T08:02:00.096Z,8.8
2023-04-20T08:03:01.776Z,8.9
2023-04-20T08:04:03.339Z,8.9
2023-04-20T08:05:05.870Z,9
2023-04-20T08:06:07.853Z,9
2023-04-20T08:07:09.001Z,8.9
2023-04-20T08:08:09.974Z,8.9
2023-04-20T08:09:13.135Z,8.9
2023-04-20T08:10:14.685Z,8.9
2023-04-20T08:11:15.850Z,8.9
2023-04-20T08:12:17.019Z,9
2023-04-20T08:13:18.185Z,9
2023-04-20T08:14:19.684Z,9
2023-04-20T08:15:22.192Z,9
2023-04-20T08:16:24.079Z,8.9
2023-04-20T08:17:25.286Z,8.9
2023-04-20T08:18:26.446Z,8.8
2023-04-20T08:19:27.952Z,8.8
2023-04-20T08:20:29.087Z,8.8
2023-04-20T08:21:30.252Z,8.8
2023-04-20T08:22:31.220Z,8.9
2023-04-20T08:23:32.385Z,8.9
2023-04-20T08:24:34.120Z,8.9
2023-04-20T08:25:35.576Z,9
2023-04-20T08:26:36.762Z,9
2023-04-20T08:27:37.605Z,9
2023-04-20T08:28:38.767Z,9
2023-04-20T08:29:39.767Z,9
2023-04-20T08:30:40.921Z,9
2023-04-20T08:31:42.361Z,9
2023-04-20T08:32:44.152Z,9
2023-04-20T08:33:45.433Z,9
2023-04-20T08:34:47.778Z,8.9
2023-04-20T08:35:48.928Z,9
2023-04-20T08:36:50.096Z,9
2023-04-20T08:37:51.261Z,9
2023-04-20T08:38:52.270Z,9.1
2023-04-20T08:39:53.660Z,9.1
2023-04-20T08:40:54.974Z,9.1
2023-04-20T08:41:56.000Z,9.1
2023-04-20T08:42:57.170Z,9.1
2023-04-20T08:43:58.328Z,9.2
2023-04-20T08:44:59.509Z,9.2
2023-04-20T08:46:00.897Z,9.2
2023-04-20T08:47:02.390Z,9.1
2023-04-20T08:48:04.049Z,9.1
2023-04-20T08:49:05.266Z,9.1
2023-04-20T08:50:06.460Z,9.1
2023-04-20T08:51:07.602Z,9.1
2023-04-20T08:52:08.764Z,9.2
2023-04-20T08:53:09.953Z,9.2
2023-04-20T08:54:11.094Z,9.1
2023-04-20T08:55:12.519Z,9.1
2023-04-20T08:56:13.776Z,9.1
2023-04-20T08:57:14.793Z,9
2023-04-20T08:58:15.956Z,9
2023-04-20T08:59:17.154Z,9
2023-04-20T09:00:18.197Z,9
2023-04-20T09:01:22.787Z,9
2023-04-20T09:02:36.980Z,9
2023-04-20T09:03:38.646Z,9
2023-04-20T09:04:40.258Z,9.1
2023-04-20T09:05:42.052Z,9.2
2023-04-20T09:06:43.211Z,9.2
2023-04-20T09:07:44.216Z,9.2
2023-04-20T09:08:45.381Z,9.2
2023-04-20T09:09:46.410Z,9.2
2023-04-20T09:10:47.845Z,9.2
2023-04-20T09:11:48.891Z,9.2
2023-04-20T09:12:50.061Z,9.3
2023-04-20T09:13:51.222Z,9.3
2023-04-20T09:14:52.393Z,9.3
2023-04-20T09:15:53.611Z,9.3
2023-04-20T09:16:54.523Z,9.3
2023-04-20T09:17:55.771Z,9.3
2023-04-20T09:18:56.954Z,9.3
2023-04-20T09:19:58.105Z,9.3
2023-04-20T09:20:59.821Z,9.4
2023-04-20T09:22:00.943Z,9.4
2023-04-20T09:23:01.917Z,9.4
2023-04-20T09:24:02.905Z,9.4
2023-04-20T09:25:04.059Z,9.5
2023-04-20T09:26:05.419Z,9.5
2023-04-20T09:27:06.428Z,9.5
2023-04-20T09:28:07.603Z,9.5
2023-04-20T09:29:08.763Z,9.5
2023-04-20T09:30:09.925Z,9.5
2023-04-20T09:31:11.099Z,9.6
2023-04-20T09:32:15.556Z,9.6
2023-04-20T09:33:16.708Z,9.7
2023-04-20T09:34:18.030Z,9.8
2023-04-20T09:35:19.585Z,9.8
2023-04-20T09:36:20.765Z,9.8
2023-04-20T09:37:21.912Z,9.9
2023-04-20T09:38:22.941Z,9.9
2023-04-20T09:39:23.946Z,9.9
2023-04-20T09:40:24.915Z,10
2023-04-20T09:41:26.122Z,10
2023-04-20T09:42:27.515Z,10.2
2023-04-20T09:43:28.688Z,10.3
2023-04-20T09:44:29.710Z,10.3
2023-04-20T09:45:30.743Z,10.4
2023-04-20T09:46:31.920Z,10.5
2023-04-20T09:47:33.079Z,10.5
2023-04-20T09:48:34.251Z,10.5
2023-04-20T09:49:35.422Z,10.6
2023-04-20T09:50:46.067Z,10.6
2023-04-20T09:51:52.527Z,10.6
2023-04-20T09:52:53.666Z,10.6
2023-04-20T09:53:54.834Z,10.6
2023-04-20T09:54:56.005Z,10.6
2023-04-20T09:55:56.821Z,10.6
2023-04-20T09:56:58.053Z,10.6
2023-04-20T09:57:59.126Z,10.6
2023-04-20T09:59:00.290Z,10.6
2023-04-20T10:00:01.463Z,10.6
2023-04-20T10:01:02.673Z,10.5
2023-04-20T10:02:03.982Z,10.5
2023-04-20T10:03:05.453Z,10.5
2023-04-20T10:04:07.098Z,10.4
2023-04-20T10:05:09.399Z,10.4
2023-04-20T10:06:10.565Z,10.4
2023-04-20T10:07:11.550Z,10.4
2023-04-20T10:08:12.698Z,10.3
2023-04-20T10:09:13.930Z,10.3
2023-04-20T10:10:15.091Z,10.3
2023-04-20T10:11:16.253Z,10.4
2023-04-20T10:12:17.280Z,10.4
2023-04-20T10:13:18.246Z,10.4
2023-04-20T10:14:19.654Z,10.4
2023-04-20T10:15:21.799Z,10.5
2023-04-20T10:16:23.150Z,10.6
2023-04-20T10:17:24.598Z,10.6
2023-04-20T10:18:26.379Z,10.7
2023-04-20T10:19:27.918Z,10.7
2023-04-20T10:20:29.094Z,10.8
2023-04-20T10:21:30.079Z,10.8
2023-04-20T10:22:31.246Z,10.8
2023-04-20T10:23:32.410Z,10.8
2023-04-20T10:24:33.577Z,10.9
2023-04-20T10:25:34.751Z,11
2023-04-20T10:26:35.914Z,11.2
2023-04-20T10:27:37.133Z,11.4
2023-04-20T10:28:38.268Z,11.5
2023-04-20T10:29:39.246Z,11.5
2023-04-20T10:30:40.427Z,11.5
2023-04-20T10:31:41.623Z,11.5
2023-04-20T10:32:43.012Z,11.5
2023-04-20T10:33:44.268Z,11.4
2023-04-20T10:34:45.439Z,11.4
2023-04-20T10:35:46.606Z,11.4
2023-04-20T10:36:47.580Z,11.3
2023-04-20T10:37:48.802Z,11.3
2023-04-20T10:38:49.948Z,11.3
2023-04-20T10:39:51.112Z,11.4
2023-04-20T10:40:52.293Z,11.4
2023-04-20T10:41:53.458Z,11.4
2023-04-20T10:42:54.956Z,11.4
2023-04-20T10:43:56.019Z,11.5
2023-04-20T10:44:57.187Z,11.5
2023-04-20T10:45:58.369Z,11.6
2023-04-20T10:46:59.336Z,11.6
2023-04-20T10:48:00.601Z,11.6
2023-04-20T10:49:01.709Z,11.7
2023-04-20T10:50:02.873Z,11.8
2023-04-20T10:51:04.038Z,11.8
2023-04-20T10:52:05.209Z,11.9
2023-04-20T10:53:06.390Z,11.9
2023-04-20T10:54:07.574Z,12
2023-04-20T10:55:09.396Z,12.1
2023-04-20T10:56:10.370Z,12.1
2023-04-20T10:57:11.341Z,12.1
2023-04-20T10:58:12.680Z,12
2023-04-20T10:59:13.640Z,12
2023-04-20T11:00:14.582Z,12.1
2023-04-20T11:01:15.753Z,12.1
2023-04-20T11:02:17.063Z,12.2
2023-04-20T11:03:18.546Z,12.2
2023-04-20T11:04:19.835Z,12.2
2023-04-20T11:05:21.037Z,12.3
2023-04-20T11:06:22.237Z,12.4
2023-04-20T11:07:23.405Z,12.4
2023-04-20T11:08:24.395Z,12.4
2023-04-20T11:09:25.387Z,12.4
2023-04-20T11:10:26.329Z,12.4
2023-04-20T11:11:27.487Z,12.4
2023-04-20T11:12:28.654Z,12.4
2023-04-20T11:13:30.091Z,12.4
2023-04-20T11:14:31.132Z,12.4
2023-04-20T11:15:32.304Z,12.5
2023-04-20T11:16:45.025Z,12.5
2023-04-20T11:17:53.158Z,12.6
2023-04-20T11:18:54.523Z,12.6
2023-04-20T11:19:55.689Z,12.6
2023-04-20T11:20:56.849Z,12.6
2023-04-20T11:21:58.042Z,12.6
2023-04-20T11:22:59.184Z,12.7
2023-04-20T11:24:00.228Z,12.7
2023-04-20T11:25:01.241Z,12.6
2023-04-20T11:26:02.412Z,12.6
2023-04-20T11:27:03.577Z,12.5
2023-04-20T11:28:04.745Z,12.5
2023-04-20T11:29:05.939Z,12.6
2023-04-20T11:30:07.164Z,12.6
2023-04-20T11:31:08.494Z,12.7
2023-04-20T11:32:09.745Z,12.7
2023-04-20T11:33:11.282Z,12.6
2023-04-20T11:34:12.693Z,12.6
2023-04-20T11:35:13.849Z,12.5
2023-04-20T11:36:15.029Z,12.5
2023-04-20T11:37:16.180Z,12.4
2023-04-20T11:38:17.207Z,12.4
2023-04-20T11:39:18.370Z,12.4
2023-04-20T11:40:20.205Z,12.4
2023-04-20T11:41:21.364Z,12.3
2023-04-20T11:42:22.633Z,12.3
2023-04-20T11:43:23.811Z,12.3
2023-04-20T11:44:24.921Z,12.3
2023-04-20T11:45:25.736Z,12.3
2023-04-20T11:46:27.845Z,12.4
2023-04-20T11:47:29.072Z,12.4
2023-04-20T11:48:30.184Z,12.5
2023-04-20T11:49:31.361Z,12.5
2023-04-20T11:50:32.536Z,12.5
2023-04-20T11:51:33.482Z,12.6
2023-04-20T11:52:34.672Z,12.6
2023-04-20T11:53:35.820Z,12.7
2023-04-20T11:54:37.002Z,12.7
2023-04-20T11:55:37.959Z,12.6
2023-04-20T11:56:39.127Z,12.6
2023-04-20T11:57:40.110Z,12.6
2023-04-20T11:58:41.354Z,12.6
2023-04-20T11:59:42.720Z,12.6
2023-04-20T12:00:43.849Z,12.7
2023-04-20T12:01:45.019Z,12.7
2023-04-20T12:02:46.201Z,12.7
2023-04-20T12:03:48.112Z,12.7
2023-04-20T12:04:50.073Z,12.8
2023-04-20T12:05:51.396Z,12.8
2023-04-20T12:06:52.764Z,12.9
2023-04-20T12:07:53.910Z,12.9
2023-04-20T12:08:54.874Z,12.9
2023-04-20T12:09:56.045Z,12.9
2023-04-20T12:10:58.499Z,13
2023-04-20T12:11:59.875Z,13
2023-04-20T12:13:01.051Z,13.1
2023-04-20T12:14:02.211Z,13.1
2023-04-20T12:15:03.426Z,13.2
2023-04-20T12:16:04.678Z,13.2
2023-04-20T12:17:06.038Z,13.2
2023-04-20T12:18:07.197Z,13.2
2023-04-20T12:19:08.806Z,13.2
2023-04-20T12:20:10.063Z,13.2
2023-04-20T12:21:11.212Z,13.2
2023-04-20T12:22:12.373Z,13.1
2023-04-20T12:23:13.538Z,13.1
2023-04-20T12:24:14.364Z,13.1
2023-04-20T12:25:15.532Z,13.1
2023-04-20T12:26:16.718Z,13
2023-04-20T12:27:17.863Z,13
2023-04-20T12:28:19.025Z,13
2023-04-20T12:29:20.558Z,12.9
2023-04-20T12:30:22.029Z,12.9
2023-04-20T12:31:24.492Z,12.9
2023-04-20T12:32:27.655Z,12.9
2023-04-20T12:33:28.805Z,12.9
2023-04-20T12:34:30.714Z,12.9
2023-04-20T12:35:31.972Z,12.8
2023-04-20T12:36:33.125Z,12.8
2023-04-20T12:37:34.295Z,12.7
2023-04-20T12:38:35.267Z,12.7
2023-04-20T12:39:36.443Z,12.7
2023-04-20T12:40:37.725Z,12.6
2023-04-20T12:41:38.973Z,12.6
2023-04-20T12:42:40.100Z,12.6
2023-04-20T12:43:41.266Z,12.6
2023-04-20T12:44:42.448Z,12.6
2023-04-20T12:45:43.449Z,12.5
2023-04-20T12:46:44.621Z,12.5
2023-04-20T12:47:46.107Z,12.5
2023-04-20T12:48:47.368Z,12.4
2023-04-20T12:49:48.561Z,12.4
2023-04-20T12:50:49.749Z,12.3
2023-04-20T12:51:50.878Z,12.2
2023-04-20T12:52:52.043Z,12.2
2023-04-20T12:53:53.213Z,12.1
2023-04-20T12:54:54.419Z,12.1
2023-04-20T12:56:01.001Z,12.1
2023-04-20T12:57:02.618Z,12
2023-04-20T12:58:03.789Z,12
2023-04-20T12:59:04.954Z,11.9
2023-04-20T13:00:06.154Z,11.9
2023-04-20T13:01:07.624Z,11.9
2023-04-20T13:02:09.350Z,11.8
2023-04-20T13:03:10.707Z,11.8
2023-04-20T13:04:12.460Z,11.7
2023-04-20T13:05:14.061Z,11.7
2023-04-20T13:06:15.057Z,11.7
2023-04-20T13:07:16.220Z,11.6
2023-04-20T13:08:17.469Z,11.6
2023-04-20T13:09:18.633Z,11.5
2023-04-20T13:10:19.814Z,11.5
2023-04-20T13:11:20.978Z,11.5
2023-04-20T13:12:22.144Z,11.5
2023-04-20T13:13:23.130Z,11.5
2023-04-20T13:14:24.273Z,11.4
2023-04-20T13:15:37.945Z,11.4
2023-04-20T13:16:40.816Z,11.4
2023-04-20T13:17:42.096Z,11.3
2023-04-20T13:18:43.513Z,11.3
2023-04-20T13:19:44.682Z,11.3
2023-04-20T13:20:45.852Z,11.2
2023-04-20T13:21:47.028Z,11.2
2023-04-20T13:22:57.380Z,11.2
2023-04-20T13:23:59.324Z,11.1
2023-04-20T13:25:00.505Z,11.1
2023-04-20T13:26:01.529Z,11
2023-04-20T13:27:02.691Z,11
2023-04-20T13:28:03.709Z,11
2023-04-20T13:29:04.910Z,10.9
2023-04-20T13:30:06.056Z,10.9
2023-04-20T13:31:07.213Z,10.9
2023-04-20T13:32:08.625Z,10.8
2023-04-20T13:33:09.954Z,10.8
2023-04-20T13:34:11.285Z,10.7
2023-04-20T13:35:12.468Z,10.7
2023-04-20T13:36:13.519Z,10.6
2023-04-20T13:37:14.687Z,10.6
2023-04-20T13:38:15.860Z,10.5
2023-04-20T13:39:17.197Z,10.5
2023-04-20T13:40:18.940Z,10.4
2023-04-20T13:41:20.069Z,10.4
2023-04-20T13:42:21.235Z,10.4
2023-04-20T13:43:22.402Z,10.3
2023-04-20T13:44:23.565Z,10.3
2023-04-20T13:45:24.735Z,10.3
2023-04-20T13:46:25.592Z,10.3
2023-04-20T13:47:27.308Z,10.2
2023-04-20T13:48:28.560Z,10.2
2023-04-20T13:49:29.688Z,10.2
2023-04-20T13:50:30.935Z,10.2
2023-04-20T13:51:32.083Z,10.1
2023-04-20T13:52:33.252Z,10.1
2023-04-20T13:53:34.417Z,10.1
2023-04-20T13:54:35.587Z,10.1
2023-04-20T13:55:36.483Z,10
2023-04-20T13:56:37.643Z,10
2023-04-20T13:57:38.884Z,10
2023-04-20T13:58:40.039Z,10
2023-04-20T13:59:41.206Z,9.9
2023-04-20T14:00:42.395Z,9.9